sensor_id;sensor_type;location;lat;lon;timestamp;P1;durP1;ratioP1;P2;durP2;ratioP2
351;SDS011;164;50.784;6.496;2023-07-13T00:00:20;3.90;;;2.53;;
351;SDS011;164;50.784;6.496;2023-07-13T00:02:47;5.57;;;2.70;;
351;SDS011;164;50.784;6.496;2023-07-13T00:05:16;5.45;;;2.50;;
351;SDS011;164;50.784;6.496;2023-07-13T00:07:43;7.55;;;3.17;;
351;SDS011;164;50.784;6.496;2023-07-13T00:10:11;5.70;;;3.13;;
351;SDS011;164;50.784;6.496;2023-07-13T00:12:39;4.07;;;2.10;;
351;SDS011;164;50.784;6.496;2023-07-13T00:15:07;5.43;;;2.70;;
351;SDS011;164;50.784;6.496;2023-07-13T00:17:35;4.70;;;2.20;;
351;SDS011;164;50.784;6.496;2023-07-13T00:20:04;3.80;;;1.85;;
351;SDS011;164;50.784;6.496;2023-07-13T00:22:33;4.38;;;2.45;;
351;SDS011;164;50.784;6.496;2023-07-13T00:25:00;6.63;;;1.65;;
351;SDS011;164;50.784;6.496;2023-07-13T00:27:28;4.80;;;2.10;;
351;SDS011;164;50.784;6.496;2023-07-13T00:29:57;4.10;;;3.10;;
351;SDS011;164;50.784;6.496;2023-07-13T00:32:24;9.13;;;2.40;;
351;SDS011;164;50.784;6.496;2023-07-13T00:34:51;4.95;;;2.25;;
351;SDS011;164;50.784;6.496;2023-07-13T00:37:19;7.55;;;2.78;;
351;SDS011;164;50.784;6.496;2023-07-13T00:39:48;3.90;;;2.20;;
351;SDS011;164;50.784;6.496;2023-07-13T00:42:15;5.35;;;2.72;;
351;SDS011;164;50.784;6.496;2023-07-13T00:47:24;2.92;;;1.98;;
351;SDS011;164;50.784;6.496;2023-07-13T00:49:51;12.05;;;3.40;;
351;SDS011;164;50.784;6.496;2023-07-13T00:52:19;5.93;;;2.97;;
351;SDS011;164;50.784;6.496;2023-07-13T00:54:47;7.63;;;2.58;;
351;SDS011;164;50.784;6.496;2023-07-13T00:57:16;13.15;;;2.80;;
351;SDS011;164;50.784;6.496;2023-07-13T00:59:45;4.03;;;2.25;;
351;SDS011;164;50.784;6.496;2023-07-13T01:02:13;5.75;;;2.40;;
351;SDS011;164;50.784;6.496;2023-07-13T01:04:41;6.80;;;2.80;;
351;SDS011;164;50.784;6.496;2023-07-13T01:07:10;5.40;;;2.40;;
351;SDS011;164;50.784;6.496;2023-07-13T01:09:37;7.93;;;2.90;;
351;SDS011;164;50.784;6.496;2023-07-13T01:12:07;4.32;;;2.17;;
351;SDS011;164;50.784;6.496;2023-07-13T01:14:34;7.25;;;2.92;;
351;SDS011;164;50.784;6.496;2023-07-13T01:22:15;3.15;;;1.73;;
351;SDS011;164;50.784;6.496;2023-07-13T01:24:43;4.40;;;2.33;;
351;SDS011;164;50.784;6.496;2023-07-13T01:27:12;3.33;;;1.92;;
351;SDS011;164;50.784;6.496;2023-07-13T01:29:40;8.70;;;2.38;;
351;SDS011;164;50.784;6.496;2023-07-13T01:32:08;3.78;;;2.50;;
351;SDS011;164;50.784;6.496;2023-07-13T01:34:35;4.90;;;2.53;;
351;SDS011;164;50.784;6.496;2023-07-13T01:37:03;4.85;;;2.15;;
351;SDS011;164;50.784;6.496;2023-07-13T01:39:32;5.18;;;2.50;;
351;SDS011;164;50.784;6.496;2023-07-13T01:41:59;4.25;;;2.30;;
351;SDS011;164;50.784;6.496;2023-07-13T01:44:27;4.28;;;2.40;;
351;SDS011;164;50.784;6.496;2023-07-13T01:46:54;4.82;;;2.30;;
351;SDS011;164;50.784;6.496;2023-07-13T01:49:21;2.75;;;1.85;;
351;SDS011;164;50.784;6.496;2023-07-13T01:51:49;3.92;;;1.45;;
351;SDS011;164;50.784;6.496;2023-07-13T01:54:16;2.58;;;1.20;;
351;SDS011;164;50.784;6.496;2023-07-13T01:56:44;3.85;;;1.75;;
351;SDS011;164;50.784;6.496;2023-07-13T01:59:11;1.98;;;0.98;;
351;SDS011;164;50.784;6.496;2023-07-13T02:01:39;5.13;;;1.33;;
351;SDS011;164;50.784;6.496;2023-07-13T02:04:06;2.95;;;1.52;;
351;SDS011;164;50.784;6.496;2023-07-13T02:06:33;4.50;;;1.67;;
351;SDS011;164;50.784;6.496;2023-07-13T02:09:00;2.67;;;1.73;;
351;SDS011;164;50.784;6.496;2023-07-13T02:11:28;2.67;;;1.48;;
351;SDS011;164;50.784;6.496;2023-07-13T02:13:59;3.08;;;1.45;;
351;SDS011;164;50.784;6.496;2023-07-13T02:16:26;3.03;;;1.85;;
351;SDS011;164;50.784;6.496;2023-07-13T02:18:54;2.22;;;1.20;;
351;SDS011;164;50.784;6.496;2023-07-13T02:21:21;2.05;;;1.13;;
351;SDS011;164;50.784;6.496;2023-07-13T02:23:48;1.73;;;1.13;;
351;SDS011;164;50.784;6.496;2023-07-13T02:26:16;4.20;;;1.63;;
351;SDS011;164;50.784;6.496;2023-07-13T02:28:43;3.03;;;1.55;;
351;SDS011;164;50.784;6.496;2023-07-13T02:31:12;4.30;;;1.33;;
351;SDS011;164;50.784;6.496;2023-07-13T02:33:39;4.50;;;1.40;;
351;SDS011;164;50.784;6.496;2023-07-13T02:36:07;4.25;;;2.03;;
351;SDS011;164;50.784;6.496;2023-07-13T02:38:35;2.65;;;1.25;;
351;SDS011;164;50.784;6.496;2023-07-13T02:41:02;1.83;;;1.30;;
351;SDS011;164;50.784;6.496;2023-07-13T02:43:30;5.00;;;1.80;;
351;SDS011;164;50.784;6.496;2023-07-13T02:45:58;2.83;;;1.98;;
351;SDS011;164;50.784;6.496;2023-07-13T02:48:30;5.25;;;2.42;;
351;SDS011;164;50.784;6.496;2023-07-13T02:50:58;2.85;;;1.70;;
351;SDS011;164;50.784;6.496;2023-07-13T02:53:25;4.47;;;2.15;;
351;SDS011;164;50.784;6.496;2023-07-13T02:55:52;2.38;;;2.17;;
351;SDS011;164;50.784;6.496;2023-07-13T02:58:19;8.60;;;2.35;;
351;SDS011;164;50.784;6.496;2023-07-13T03:00:47;5.90;;;2.25;;
351;SDS011;164;50.784;6.496;2023-07-13T03:03:15;2.75;;;1.90;;
351;SDS011;164;50.784;6.496;2023-07-13T03:05:44;6.07;;;2.42;;
351;SDS011;164;50.784;6.496;2023-07-13T03:08:15;7.22;;;2.60;;
351;SDS011;164;50.784;6.496;2023-07-13T03:10:44;5.93;;;3.03;;
351;SDS011;164;50.784;6.496;2023-07-13T03:13:11;2.75;;;1.90;;
351;SDS011;164;50.784;6.496;2023-07-13T03:15:38;4.18;;;2.00;;
351;SDS011;164;50.784;6.496;2023-07-13T03:18:06;5.65;;;2.10;;
351;SDS011;164;50.784;6.496;2023-07-13T03:20:33;3.17;;;2.10;;
351;SDS011;164;50.784;6.496;2023-07-13T03:23:02;4.00;;;1.77;;
351;SDS011;164;50.784;6.496;2023-07-13T03:25:29;3.28;;;1.40;;
351;SDS011;164;50.784;6.496;2023-07-13T03:27:56;5.00;;;2.17;;
351;SDS011;164;50.784;6.496;2023-07-13T03:30:24;6.30;;;2.33;;
351;SDS011;164;50.784;6.496;2023-07-13T03:32:51;4.20;;;1.98;;
351;SDS011;164;50.784;6.496;2023-07-13T03:35:18;2.90;;;1.98;;
351;SDS011;164;50.784;6.496;2023-07-13T03:37:45;5.10;;;1.88;;
351;SDS011;164;50.784;6.496;2023-07-13T03:40:14;6.10;;;3.13;;
351;SDS011;164;50.784;6.496;2023-07-13T03:42:41;3.75;;;2.40;;
351;SDS011;164;50.784;6.496;2023-07-13T03:45:08;3.83;;;2.13;;
351;SDS011;164;50.784;6.496;2023-07-13T03:47:35;3.22;;;2.10;;
351;SDS011;164;50.784;6.496;2023-07-13T03:50:03;8.10;;;2.33;;
351;SDS011;164;50.784;6.496;2023-07-13T03:52:30;4.53;;;2.60;;
351;SDS011;164;50.784;6.496;2023-07-13T03:54:58;4.57;;;2.55;;
351;SDS011;164;50.784;6.496;2023-07-13T04:03:36;4.13;;;1.90;;
351;SDS011;164;50.784;6.496;2023-07-13T04:06:05;3.25;;;2.10;;
351;SDS011;164;50.784;6.496;2023-07-13T04:08:33;3.35;;;2.15;;
351;SDS011;164;50.784;6.496;2023-07-13T04:11:03;4.85;;;1.95;;
351;SDS011;164;50.784;6.496;2023-07-13T04:13:30;5.05;;;2.67;;
351;SDS011;164;50.784;6.496;2023-07-13T04:15:57;3.53;;;2.50;;
351;SDS011;164;50.784;6.496;2023-07-13T04:18:25;5.03;;;1.83;;
351;SDS011;164;50.784;6.496;2023-07-13T04:20:53;3.42;;;2.08;;
351;SDS011;164;50.784;6.496;2023-07-13T04:23:21;5.35;;;2.75;;
351;SDS011;164;50.784;6.496;2023-07-13T04:25:48;4.35;;;1.88;;
351;SDS011;164;50.784;6.496;2023-07-13T04:28:18;2.42;;;1.70;;
351;SDS011;164;50.784;6.496;2023-07-13T04:30:45;3.03;;;1.77;;
351;SDS011;164;50.784;6.496;2023-07-13T04:33:12;4.78;;;1.90;;
351;SDS011;164;50.784;6.496;2023-07-13T04:35:39;2.05;;;1.50;;
351;SDS011;164;50.784;6.496;2023-07-13T04:38:08;3.58;;;1.52;;
351;SDS011;164;50.784;6.496;2023-07-13T04:40:37;5.32;;;1.90;;
351;SDS011;164;50.784;6.496;2023-07-13T04:43:04;5.82;;;2.17;;
351;SDS011;164;50.784;6.496;2023-07-13T04:45:31;4.25;;;1.85;;
351;SDS011;164;50.784;6.496;2023-07-13T04:47:58;1.70;;;1.20;;
351;SDS011;164;50.784;6.496;2023-07-13T04:50:25;3.55;;;1.52;;
351;SDS011;164;50.784;6.496;2023-07-13T04:52:52;6.28;;;2.20;;
351;SDS011;164;50.784;6.496;2023-07-13T04:55:21;8.25;;;2.65;;
351;SDS011;164;50.784;6.496;2023-07-13T04:57:49;4.43;;;2.42;;
351;SDS011;164;50.784;6.496;2023-07-13T05:00:16;5.57;;;1.80;;
351;SDS011;164;50.784;6.496;2023-07-13T05:02:43;8.38;;;1.85;;
351;SDS011;164;50.784;6.496;2023-07-13T05:05:11;4.40;;;1.83;;
351;SDS011;164;50.784;6.496;2023-07-13T05:07:38;3.83;;;2.13;;
351;SDS011;164;50.784;6.496;2023-07-13T05:10:06;2.53;;;1.92;;
351;SDS011;164;50.784;6.496;2023-07-13T05:12:35;1.77;;;1.15;;
351;SDS011;164;50.784;6.496;2023-07-13T05:15:03;2.63;;;1.30;;
351;SDS011;164;50.784;6.496;2023-07-13T05:17:30;3.03;;;0.90;;
351;SDS011;164;50.784;6.496;2023-07-13T05:19:57;4.72;;;1.67;;
351;SDS011;164;50.784;6.496;2023-07-13T05:22:25;3.45;;;2.17;;
351;SDS011;164;50.784;6.496;2023-07-13T05:24:52;3.38;;;1.90;;
351;SDS011;164;50.784;6.496;2023-07-13T05:27:19;6.18;;;1.90;;
351;SDS011;164;50.784;6.496;2023-07-13T05:29:48;3.20;;;1.48;;
351;SDS011;164;50.784;6.496;2023-07-13T05:32:15;3.00;;;1.67;;
351;SDS011;164;50.784;6.496;2023-07-13T05:34:42;3.22;;;1.75;;
351;SDS011;164;50.784;6.496;2023-07-13T05:37:09;2.83;;;1.33;;
351;SDS011;164;50.784;6.496;2023-07-13T05:39:36;2.78;;;1.52;;
351;SDS011;164;50.784;6.496;2023-07-13T05:42:04;4.88;;;1.48;;
351;SDS011;164;50.784;6.496;2023-07-13T05:44:31;2.47;;;1.30;;
351;SDS011;164;50.784;6.496;2023-07-13T05:47:00;5.38;;;2.13;;
351;SDS011;164;50.784;6.496;2023-07-13T05:49:28;2.75;;;2.05;;
351;SDS011;164;50.784;6.496;2023-07-13T05:51:55;5.30;;;2.03;;
351;SDS011;164;50.784;6.496;2023-07-13T05:54:22;3.30;;;1.90;;
351;SDS011;164;50.784;6.496;2023-07-13T05:56:49;2.45;;;1.88;;
351;SDS011;164;50.784;6.496;2023-07-13T05:59:17;6.20;;;1.95;;
351;SDS011;164;50.784;6.496;2023-07-13T06:01:44;4.82;;;2.00;;
351;SDS011;164;50.784;6.496;2023-07-13T06:04:13;6.07;;;1.60;;
351;SDS011;164;50.784;6.496;2023-07-13T06:06:40;3.15;;;1.65;;
351;SDS011;164;50.784;6.496;2023-07-13T06:09:07;4.30;;;2.30;;
351;SDS011;164;50.784;6.496;2023-07-13T06:11:34;3.05;;;2.03;;
351;SDS011;164;50.784;6.496;2023-07-13T06:14:01;2.92;;;1.52;;
351;SDS011;164;50.784;6.496;2023-07-13T06:16:30;2.05;;;1.75;;
351;SDS011;164;50.784;6.496;2023-07-13T06:18:57;3.80;;;2.05;;
351;SDS011;164;50.784;6.496;2023-07-13T06:21:25;3.30;;;2.05;;
351;SDS011;164;50.784;6.496;2023-07-13T06:23:52;3.10;;;1.90;;
351;SDS011;164;50.784;6.496;2023-07-13T06:26:23;6.32;;;2.35;;
351;SDS011;164;50.784;6.496;2023-07-13T06:28:51;2.92;;;1.83;;
351;SDS011;164;50.784;6.496;2023-07-13T06:31:19;4.10;;;1.65;;
351;SDS011;164;50.784;6.496;2023-07-13T06:33:46;5.35;;;2.35;;
351;SDS011;164;50.784;6.496;2023-07-13T06:36:14;3.90;;;2.30;;
351;SDS011;164;50.784;6.496;2023-07-13T06:38:42;3.22;;;1.92;;
351;SDS011;164;50.784;6.496;2023-07-13T06:41:09;4.80;;;1.83;;
351;SDS011;164;50.784;6.496;2023-07-13T06:43:37;4.68;;;1.65;;
351;SDS011;164;50.784;6.496;2023-07-13T06:46:04;5.25;;;2.10;;
351;SDS011;164;50.784;6.496;2023-07-13T06:48:31;4.53;;;1.75;;
351;SDS011;164;50.784;6.496;2023-07-13T06:50:58;8.93;;;2.30;;
351;SDS011;164;50.784;6.496;2023-07-13T06:53:26;2.95;;;1.90;;
351;SDS011;164;50.784;6.496;2023-07-13T06:55:54;5.50;;;1.90;;
351;SDS011;164;50.784;6.496;2023-07-13T06:58:22;5.32;;;2.00;;
351;SDS011;164;50.784;6.496;2023-07-13T07:00:50;3.55;;;2.00;;
351;SDS011;164;50.784;6.496;2023-07-13T07:03:17;5.85;;;2.60;;
351;SDS011;164;50.784;6.496;2023-07-13T07:05:45;5.55;;;2.30;;
351;SDS011;164;50.784;6.496;2023-07-13T07:08:12;3.58;;;1.98;;
351;SDS011;164;50.784;6.496;2023-07-13T07:10:40;4.70;;;2.10;;
351;SDS011;164;50.784;6.496;2023-07-13T07:13:08;4.95;;;2.28;;
351;SDS011;164;50.784;6.496;2023-07-13T07:15:35;6.25;;;2.40;;
351;SDS011;164;50.784;6.496;2023-07-13T07:18:03;4.47;;;2.40;;
351;SDS011;164;50.784;6.496;2023-07-13T07:20:30;3.08;;;1.27;;
351;SDS011;164;50.784;6.496;2023-07-13T07:22:57;3.40;;;1.63;;
351;SDS011;164;50.784;6.496;2023-07-13T07:25:25;4.35;;;1.70;;
351;SDS011;164;50.784;6.496;2023-07-13T07:27:52;5.28;;;1.70;;
351;SDS011;164;50.784;6.496;2023-07-13T07:30:21;4.40;;;2.05;;
351;SDS011;164;50.784;6.496;2023-07-13T07:32:48;4.72;;;2.13;;
351;SDS011;164;50.784;6.496;2023-07-13T07:35:15;3.42;;;1.60;;
351;SDS011;164;50.784;6.496;2023-07-13T07:37:42;3.83;;;1.40;;
351;SDS011;164;50.784;6.496;2023-07-13T07:40:10;6.47;;;2.10;;
351;SDS011;164;50.784;6.496;2023-07-13T07:42:38;4.78;;;1.80;;
351;SDS011;164;50.784;6.496;2023-07-13T07:45:05;4.72;;;1.60;;
351;SDS011;164;50.784;6.496;2023-07-13T07:47:34;2.33;;;1.58;;
351;SDS011;164;50.784;6.496;2023-07-13T07:50:01;3.53;;;1.70;;
351;SDS011;164;50.784;6.496;2023-07-13T07:52:29;3.45;;;1.80;;
351;SDS011;164;50.784;6.496;2023-07-13T07:54:56;4.55;;;2.00;;
351;SDS011;164;50.784;6.496;2023-07-13T07:57:23;11.00;;;2.00;;
351;SDS011;164;50.784;6.496;2023-07-13T07:59:50;4.60;;;2.25;;
351;SDS011;164;50.784;6.496;2023-07-13T08:02:17;2.78;;;1.27;;
351;SDS011;164;50.784;6.496;2023-07-13T08:04:46;5.00;;;1.80;;
351;SDS011;164;50.784;6.496;2023-07-13T08:07:14;3.80;;;1.65;;
351;SDS011;164;50.784;6.496;2023-07-13T08:09:41;6.40;;;2.00;;
351;SDS011;164;50.784;6.496;2023-07-13T08:12:08;5.35;;;1.50;;
351;SDS011;164;50.784;6.496;2023-07-13T08:14:35;6.13;;;2.00;;
351;SDS011;164;50.784;6.496;2023-07-13T08:17:04;4.32;;;2.42;;
351;SDS011;164;50.784;6.496;2023-07-13T08:19:31;7.03;;;2.10;;
351;SDS011;164;50.784;6.496;2023-07-13T08:21:59;3.80;;;1.48;;
351;SDS011;164;50.784;6.496;2023-07-13T08:24:27;4.00;;;1.40;;
351;SDS011;164;50.784;6.496;2023-07-13T08:26:54;3.75;;;1.60;;
351;SDS011;164;50.784;6.496;2023-07-13T08:29:21;3.25;;;1.52;;
351;SDS011;164;50.784;6.496;2023-07-13T08:31:49;3.92;;;1.40;;
351;SDS011;164;50.784;6.496;2023-07-13T08:34:16;5.50;;;1.63;;
351;SDS011;164;50.784;6.496;2023-07-13T08:36:44;1.40;;;1.10;;
351;SDS011;164;50.784;6.496;2023-07-13T08:39:12;2.45;;;1.40;;
351;SDS011;164;50.784;6.496;2023-07-13T08:41:39;3.35;;;1.83;;
351;SDS011;164;50.784;6.496;2023-07-13T08:44:07;4.40;;;1.88;;
351;SDS011;164;50.784;6.496;2023-07-13T08:46:41;5.60;;;1.73;;
351;SDS011;164;50.784;6.496;2023-07-13T08:49:10;4.05;;;2.38;;
351;SDS011;164;50.784;6.496;2023-07-13T08:51:41;2.97;;;1.60;;
351;SDS011;164;50.784;6.496;2023-07-13T08:54:12;1.70;;;1.55;;
351;SDS011;164;50.784;6.496;2023-07-13T08:56:45;2.75;;;2.00;;
351;SDS011;164;50.784;6.496;2023-07-13T08:59:14;4.13;;;1.85;;
351;SDS011;164;50.784;6.496;2023-07-13T09:01:46;2.90;;;1.73;;
351;SDS011;164;50.784;6.496;2023-07-13T09:04:15;3.15;;;1.60;;
351;SDS011;164;50.784;6.496;2023-07-13T09:06:46;3.88;;;2.08;;
351;SDS011;164;50.784;6.496;2023-07-13T09:09:18;4.43;;;2.10;;
351;SDS011;164;50.784;6.496;2023-07-13T09:11:52;1.65;;;1.33;;
351;SDS011;164;50.784;6.496;2023-07-13T09:14:38;3.67;;;1.02;;
351;SDS011;164;50.784;6.496;2023-07-13T09:17:10;3.00;;;1.55;;
351;SDS011;164;50.784;6.496;2023-07-13T09:19:38;6.43;;;1.25;;
351;SDS011;164;50.784;6.496;2023-07-13T09:22:09;4.20;;;1.50;;
351;SDS011;164;50.784;6.496;2023-07-13T09:24:38;3.90;;;1.30;;
351;SDS011;164;50.784;6.496;2023-07-13T09:27:11;2.88;;;1.50;;
351;SDS011;164;50.784;6.496;2023-07-13T09:29:42;4.15;;;1.77;;
351;SDS011;164;50.784;6.496;2023-07-13T09:32:11;5.03;;;1.55;;
351;SDS011;164;50.784;6.496;2023-07-13T09:34:39;1.90;;;1.30;;
351;SDS011;164;50.784;6.496;2023-07-13T09:37:06;4.80;;;1.50;;
351;SDS011;164;50.784;6.496;2023-07-13T09:39:35;4.38;;;1.60;;
351;SDS011;164;50.784;6.496;2023-07-13T09:42:06;1.60;;;1.58;;
351;SDS011;164;50.784;6.496;2023-07-13T09:44:36;5.55;;;2.15;;
351;SDS011;164;50.784;6.496;2023-07-13T09:47:12;6.10;;;1.90;;
351;SDS011;164;50.784;6.496;2023-07-13T09:49:42;3.17;;;1.70;;
351;SDS011;164;50.784;6.496;2023-07-13T09:52:11;3.85;;;1.58;;
351;SDS011;164;50.784;6.496;2023-07-13T09:54:39;2.67;;;1.70;;
351;SDS011;164;50.784;6.496;2023-07-13T09:57:11;2.33;;;1.60;;
351;SDS011;164;50.784;6.496;2023-07-13T09:59:41;3.13;;;1.70;;
351;SDS011;164;50.784;6.496;2023-07-13T10:02:22;3.60;;;1.33;;
351;SDS011;164;50.784;6.496;2023-07-13T10:04:54;4.20;;;1.60;;
351;SDS011;164;50.784;6.496;2023-07-13T10:07:22;4.13;;;1.60;;
351;SDS011;164;50.784;6.496;2023-07-13T10:09:51;2.30;;;1.50;;
351;SDS011;164;50.784;6.496;2023-07-13T10:12:19;2.03;;;1.35;;
351;SDS011;164;50.784;6.496;2023-07-13T10:14:50;3.17;;;1.50;;
351;SDS011;164;50.784;6.496;2023-07-13T10:17:17;2.03;;;1.30;;
351;SDS011;164;50.784;6.496;2023-07-13T10:19:46;3.03;;;1.23;;
351;SDS011;164;50.784;6.496;2023-07-13T10:22:17;2.53;;;1.10;;
351;SDS011;164;50.784;6.496;2023-07-13T10:24:47;2.80;;;1.38;;
351;SDS011;164;50.784;6.496;2023-07-13T10:27:16;1.88;;;1.25;;
351;SDS011;164;50.784;6.496;2023-07-13T10:29:46;4.85;;;1.50;;
351;SDS011;164;50.784;6.496;2023-07-13T10:32:15;2.45;;;1.10;;
351;SDS011;164;50.784;6.496;2023-07-13T10:34:42;4.00;;;1.70;;
351;SDS011;164;50.784;6.496;2023-07-13T10:37:14;2.33;;;1.23;;
351;SDS011;164;50.784;6.496;2023-07-13T10:39:43;3.10;;;1.30;;
351;SDS011;164;50.784;6.496;2023-07-13T10:42:11;1.52;;;1.25;;
351;SDS011;164;50.784;6.496;2023-07-13T10:44:40;2.08;;;1.45;;
351;SDS011;164;50.784;6.496;2023-07-13T10:47:08;2.67;;;1.42;;
351;SDS011;164;50.784;6.496;2023-07-13T10:49:39;2.30;;;0.95;;
351;SDS011;164;50.784;6.496;2023-07-13T10:52:20;4.53;;;1.17;;
351;SDS011;164;50.784;6.496;2023-07-13T10:55:02;2.08;;;1.02;;
351;SDS011;164;50.784;6.496;2023-07-13T10:57:31;2.10;;;0.90;;
351;SDS011;164;50.784;6.496;2023-07-13T11:00:13;3.00;;;1.40;;
351;SDS011;164;50.784;6.496;2023-07-13T11:02:41;3.00;;;1.48;;
351;SDS011;164;50.784;6.496;2023-07-13T11:05:17;1.75;;;1.10;;
351;SDS011;164;50.784;6.496;2023-07-13T11:07:51;2.50;;;1.52;;
351;SDS011;164;50.784;6.496;2023-07-13T11:13:02;5.25;;;1.50;;
351;SDS011;164;50.784;6.496;2023-07-13T11:15:31;5.25;;;1.73;;
351;SDS011;164;50.784;6.496;2023-07-13T11:18:01;2.83;;;1.17;;
351;SDS011;164;50.784;6.496;2023-07-13T11:20:37;2.65;;;1.50;;
351;SDS011;164;50.784;6.496;2023-07-13T11:25:50;2.00;;;1.15;;
351;SDS011;164;50.784;6.496;2023-07-13T11:28:20;3.75;;;1.35;;
351;SDS011;164;50.784;6.496;2023-07-13T11:30:49;1.55;;;1.10;;
351;SDS011;164;50.784;6.496;2023-07-13T11:33:17;4.00;;;1.10;;
351;SDS011;164;50.784;6.496;2023-07-13T11:35:48;3.17;;;1.27;;
351;SDS011;164;50.784;6.496;2023-07-13T11:38:16;2.08;;;1.40;;
351;SDS011;164;50.784;6.496;2023-07-13T11:40:45;1.40;;;1.30;;
351;SDS011;164;50.784;6.496;2023-07-13T11:43:13;5.70;;;1.50;;
351;SDS011;164;50.784;6.496;2023-07-13T11:45:40;4.57;;;1.17;;
351;SDS011;164;50.784;6.496;2023-07-13T11:48:26;1.83;;;1.27;;
351;SDS011;164;50.784;6.496;2023-07-13T11:50:57;2.03;;;1.10;;
351;SDS011;164;50.784;6.496;2023-07-13T11:53:26;1.70;;;1.15;;
351;SDS011;164;50.784;6.496;2023-07-13T11:55:54;1.90;;;1.20;;
351;SDS011;164;50.784;6.496;2023-07-13T11:58:22;3.45;;;1.38;;
351;SDS011;164;50.784;6.496;2023-07-13T12:00:50;2.65;;;1.05;;
351;SDS011;164;50.784;6.496;2023-07-13T12:03:20;2.45;;;1.25;;
351;SDS011;164;50.784;6.496;2023-07-13T12:05:56;2.42;;;1.48;;
351;SDS011;164;50.784;6.496;2023-07-13T12:08:25;2.35;;;1.50;;
351;SDS011;164;50.784;6.496;2023-07-13T12:10:59;4.40;;;1.70;;
351;SDS011;164;50.784;6.496;2023-07-13T12:13:34;1.58;;;1.23;;
351;SDS011;164;50.784;6.496;2023-07-13T12:16:01;3.72;;;1.80;;
351;SDS011;164;50.784;6.496;2023-07-13T12:18:29;4.90;;;1.10;;
351;SDS011;164;50.784;6.496;2023-07-13T12:21:00;1.92;;;1.13;;
351;SDS011;164;50.784;6.496;2023-07-13T12:23:31;2.53;;;1.23;;
351;SDS011;164;50.784;6.496;2023-07-13T12:26:00;3.17;;;1.23;;
351;SDS011;164;50.784;6.496;2023-07-13T12:28:31;2.08;;;0.80;;
351;SDS011;164;50.784;6.496;2023-07-13T12:30:59;2.22;;;1.27;;
351;SDS011;164;50.784;6.496;2023-07-13T12:33:28;4.20;;;1.10;;
351;SDS011;164;50.784;6.496;2023-07-13T12:35:56;2.25;;;0.95;;
351;SDS011;164;50.784;6.496;2023-07-13T12:38:25;1.25;;;1.20;;
351;SDS011;164;50.784;6.496;2023-07-13T12:40:53;3.08;;;1.88;;
351;SDS011;164;50.784;6.496;2023-07-13T12:43:20;1.95;;;1.23;;
351;SDS011;164;50.784;6.496;2023-07-13T12:45:55;2.38;;;1.20;;
351;SDS011;164;50.784;6.496;2023-07-13T12:48:22;2.30;;;1.33;;
351;SDS011;164;50.784;6.496;2023-07-13T12:50:50;2.38;;;0.95;;
351;SDS011;164;50.784;6.496;2023-07-13T12:53:18;1.98;;;1.33;;
351;SDS011;164;50.784;6.496;2023-07-13T12:55:48;2.53;;;1.05;;
351;SDS011;164;50.784;6.496;2023-07-13T12:58:17;1.27;;;1.00;;
351;SDS011;164;50.784;6.496;2023-07-13T13:00:48;1.25;;;0.88;;
351;SDS011;164;50.784;6.496;2023-07-13T13:03:19;3.97;;;1.42;;
351;SDS011;164;50.784;6.496;2023-07-13T13:05:48;1.98;;;0.98;;
351;SDS011;164;50.784;6.496;2023-07-13T13:08:15;2.67;;;1.17;;
351;SDS011;164;50.784;6.496;2023-07-13T13:10:42;2.03;;;1.50;;
351;SDS011;164;50.784;6.496;2023-07-13T13:13:12;2.97;;;1.23;;
351;SDS011;164;50.784;6.496;2023-07-13T13:15:39;2.55;;;1.10;;
351;SDS011;164;50.784;6.496;2023-07-13T13:18:09;1.90;;;1.00;;
351;SDS011;164;50.784;6.496;2023-07-13T13:20:41;4.95;;;0.85;;
351;SDS011;164;50.784;6.496;2023-07-13T13:23:10;2.88;;;1.08;;
351;SDS011;164;50.784;6.496;2023-07-13T13:25:39;1.40;;;1.00;;
351;SDS011;164;50.784;6.496;2023-07-13T13:28:09;2.97;;;1.20;;
351;SDS011;164;50.784;6.496;2023-07-13T13:30:40;2.17;;;1.00;;
351;SDS011;164;50.784;6.496;2023-07-13T13:33:09;2.13;;;0.90;;
351;SDS011;164;50.784;6.496;2023-07-13T13:35:37;1.00;;;0.90;;
351;SDS011;164;50.784;6.496;2023-07-13T13:38:08;4.43;;;1.38;;
351;SDS011;164;50.784;6.496;2023-07-13T13:40:36;1.45;;;1.20;;
351;SDS011;164;50.784;6.496;2023-07-13T13:43:07;3.80;;;1.00;;
351;SDS011;164;50.784;6.496;2023-07-13T13:45:35;3.00;;;0.77;;
351;SDS011;164;50.784;6.496;2023-07-13T13:48:04;1.50;;;0.77;;
351;SDS011;164;50.784;6.496;2023-07-13T13:50:32;1.33;;;0.88;;
351;SDS011;164;50.784;6.496;2023-07-13T13:52:59;2.25;;;0.82;;
351;SDS011;164;50.784;6.496;2023-07-13T13:55:27;2.70;;;0.75;;
351;SDS011;164;50.784;6.496;2023-07-13T13:57:54;1.63;;;0.85;;
351;SDS011;164;50.784;6.496;2023-07-13T14:00:22;1.52;;;1.20;;
351;SDS011;164;50.784;6.496;2023-07-13T14:02:49;3.15;;;1.38;;
351;SDS011;164;50.784;6.496;2023-07-13T14:05:23;1.90;;;0.88;;
351;SDS011;164;50.784;6.496;2023-07-13T14:07:51;2.30;;;1.08;;
351;SDS011;164;50.784;6.496;2023-07-13T14:10:19;5.65;;;0.90;;
351;SDS011;164;50.784;6.496;2023-07-13T14:12:47;1.20;;;0.65;;
351;SDS011;164;50.784;6.496;2023-07-13T14:15:15;1.80;;;1.08;;
351;SDS011;164;50.784;6.496;2023-07-13T14:17:44;1.60;;;0.98;;
351;SDS011;164;50.784;6.496;2023-07-13T14:20:14;2.83;;;1.10;;
351;SDS011;164;50.784;6.496;2023-07-13T14:22:43;0.90;;;0.70;;
351;SDS011;164;50.784;6.496;2023-07-13T14:25:10;2.03;;;1.00;;
351;SDS011;164;50.784;6.496;2023-07-13T14:27:38;2.70;;;1.30;;
351;SDS011;164;50.784;6.496;2023-07-13T14:30:08;2.13;;;1.40;;
351;SDS011;164;50.784;6.496;2023-07-13T14:32:39;1.58;;;1.00;;
351;SDS011;164;50.784;6.496;2023-07-13T14:35:07;2.47;;;0.88;;
351;SDS011;164;50.784;6.496;2023-07-13T14:37:35;3.00;;;1.10;;
351;SDS011;164;50.784;6.496;2023-07-13T14:40:04;1.58;;;1.13;;
351;SDS011;164;50.784;6.496;2023-07-13T14:42:31;2.65;;;0.90;;
351;SDS011;164;50.784;6.496;2023-07-13T14:44:59;1.35;;;1.10;;
351;SDS011;164;50.784;6.496;2023-07-13T14:47:26;2.55;;;1.17;;
351;SDS011;164;50.784;6.496;2023-07-13T14:49:53;2.80;;;1.45;;
351;SDS011;164;50.784;6.496;2023-07-13T14:52:21;2.63;;;1.60;;
351;SDS011;164;50.784;6.496;2023-07-13T14:54:49;2.65;;;1.20;;
351;SDS011;164;50.784;6.496;2023-07-13T14:57:19;1.75;;;0.80;;
351;SDS011;164;50.784;6.496;2023-07-13T14:59:47;1.25;;;0.90;;
351;SDS011;164;50.784;6.496;2023-07-13T15:02:15;2.80;;;1.10;;
351;SDS011;164;50.784;6.496;2023-07-13T15:04:44;1.90;;;1.10;;
351;SDS011;164;50.784;6.496;2023-07-13T15:07:11;3.70;;;1.27;;
351;SDS011;164;50.784;6.496;2023-07-13T15:09:40;1.60;;;1.02;;
351;SDS011;164;50.784;6.496;2023-07-13T15:12:08;1.90;;;1.05;;
351;SDS011;164;50.784;6.496;2023-07-13T15:14:37;2.78;;;1.30;;
351;SDS011;164;50.784;6.496;2023-07-13T15:17:04;3.40;;;1.02;;
351;SDS011;164;50.784;6.496;2023-07-13T15:19:33;2.25;;;1.00;;
351;SDS011;164;50.784;6.496;2023-07-13T15:22:01;1.50;;;1.05;;
351;SDS011;164;50.784;6.496;2023-07-13T15:24:28;1.85;;;1.30;;
351;SDS011;164;50.784;6.496;2023-07-13T15:26:56;2.28;;;1.25;;
351;SDS011;164;50.784;6.496;2023-07-13T15:29:23;2.00;;;1.35;;
351;SDS011;164;50.784;6.496;2023-07-13T15:31:53;4.20;;;1.60;;
351;SDS011;164;50.784;6.496;2023-07-13T15:34:21;2.10;;;1.02;;
351;SDS011;164;50.784;6.496;2023-07-13T15:36:50;7.45;;;1.48;;
351;SDS011;164;50.784;6.496;2023-07-13T15:39:18;2.13;;;1.40;;
351;SDS011;164;50.784;6.496;2023-07-13T15:41:45;2.40;;;1.50;;
351;SDS011;164;50.784;6.496;2023-07-13T15:44:20;1.20;;;0.90;;
351;SDS011;164;50.784;6.496;2023-07-13T15:46:49;2.00;;;1.20;;
351;SDS011;164;50.784;6.496;2023-07-13T15:49:17;3.50;;;1.40;;
351;SDS011;164;50.784;6.496;2023-07-13T15:51:44;6.85;;;1.95;;
351;SDS011;164;50.784;6.496;2023-07-13T15:54:14;4.10;;;1.30;;
351;SDS011;164;50.784;6.496;2023-07-13T15:56:42;4.00;;;1.63;;
351;SDS011;164;50.784;6.496;2023-07-13T15:59:10;2.92;;;1.80;;
351;SDS011;164;50.784;6.496;2023-07-13T16:01:39;6.85;;;2.20;;
351;SDS011;164;50.784;6.496;2023-07-13T16:04:07;3.70;;;1.90;;
351;SDS011;164;50.784;6.496;2023-07-13T16:06:36;2.85;;;1.83;;
351;SDS011;164;50.784;6.496;2023-07-13T16:09:05;3.47;;;1.65;;
351;SDS011;164;50.784;6.496;2023-07-13T16:11:36;3.63;;;1.92;;